createdAt,value
2023-03-10T00:01:33.416Z,6.38
2023-03-10T00:04:03.025Z,5.25
2023-03-10T00:06:34.960Z,6.07
2023-03-10T00:09:03.083Z,4.55
2023-03-10T00:11:30.614Z,5.18
2023-03-10T00:13:57.773Z,4.38
2023-03-10T00:16:29.192Z,3.83
2023-03-10T00:18:57.850Z,2.33
2023-03-10T00:21:30.565Z,2.08
2023-03-10T00:24:01.964Z,1.40
2023-03-10T00:26:31.181Z,1.65
2023-03-10T00:28:58.355Z,1.42
2023-03-10T00:31:28.630Z,1.50
2023-03-10T00:33:57.105Z,3.50
2023-03-10T00:36:28.097Z,2.67
2023-03-10T00:39:01.030Z,3.53
2023-03-10T00:41:31.816Z,3.65
2023-03-10T00:44:01.058Z,5.30
2023-03-10T00:46:30.549Z,6.35
2023-03-10T00:48:57.776Z,6.07
2023-03-10T00:51:25.412Z,5.78
2023-03-10T00:53:52.776Z,5.90
2023-03-10T00:56:23.978Z,8.73
2023-03-10T00:58:57.866Z,7.95
2023-03-10T01:03:57.899Z,6.50
2023-03-10T01:06:26.371Z,6.13
2023-03-10T01:08:54.121Z,6.45
2023-03-10T01:11:27.137Z,7.57
2023-03-10T01:13:58.250Z,7.03
2023-03-10T01:16:26.728Z,6.07
2023-03-10T01:18:54.007Z,5.88
2023-03-10T01:21:33.673Z,6.95
2023-03-10T01:24:02.155Z,6.85
2023-03-10T01:26:30.564Z,6.80
2023-03-10T01:28:57.937Z,7.10
2023-03-10T01:31:25.332Z,6.15
2023-03-10T01:36:26.271Z,9.57
2023-03-10T01:41:23.531Z,5.70
2023-03-10T01:43:57.143Z,7.50
2023-03-10T01:46:55.150Z,6.68
2023-03-10T01:49:38.216Z,7.93
2023-03-10T01:52:21.803Z,7.60
2023-03-10T01:55:09.887Z,5.75
2023-03-10T01:57:50.507Z,8.20
2023-03-10T02:00:21.252Z,7.60
2023-03-10T02:02:54.716Z,9.15
2023-03-10T02:05:22.861Z,7.07
2023-03-10T02:07:52.185Z,9.02
2023-03-10T02:10:20.397Z,8.20
2023-03-10T02:12:47.741Z,8.90
2023-03-10T02:15:15.149Z,7.10
2023-03-10T02:17:44.947Z,7.75
2023-03-10T02:20:42.325Z,6.85
2023-03-10T02:23:16.708Z,7.90
2023-03-10T02:25:54.293Z,7.80
2023-03-10T02:28:21.736Z,7.22
2023-03-10T02:33:29.537Z,7.38
2023-03-10T02:36:17.662Z,6.28
2023-03-10T02:38:44.874Z,6.97
2023-03-10T02:41:39.720Z,8.27
2023-03-10T02:44:12.164Z,6.88
2023-03-10T02:46:40.347Z,8.73
2023-03-10T02:49:12.714Z,8.10
2023-03-10T02:51:46.823Z,6.40
2023-03-10T02:54:15.701Z,7.38
2023-03-10T02:56:45.707Z,5.15
2023-03-10T02:59:13.319Z,5.70
2023-03-10T03:01:40.927Z,5.13
2023-03-10T03:04:08.516Z,5.97
2023-03-10T03:06:36.084Z,5.10
2023-03-10T03:09:04.361Z,5.05
2023-03-10T03:11:34.571Z,5.68
2023-03-10T03:14:01.861Z,5.10
2023-03-10T03:16:29.042Z,5.20
2023-03-10T03:18:56.484Z,5.00
2023-03-10T03:21:24.421Z,6.65
2023-03-10T03:23:53.264Z,4.82
2023-03-10T03:26:25.419Z,5.65
2023-03-10T03:28:53.553Z,6.00
2023-03-10T03:31:26.152Z,5.43
2023-03-10T03:33:54.409Z,5.28
2023-03-10T03:36:21.551Z,5.22
2023-03-10T03:38:48.855Z,4.88
2023-03-10T03:41:16.310Z,5.75
2023-03-10T03:46:11.407Z,6.03
2023-03-10T03:48:38.817Z,5.28
2023-03-10T03:53:36.167Z,4.32
2023-03-10T03:56:03.726Z,4.38
2023-03-10T03:58:31.165Z,5.07
2023-03-10T04:03:26.787Z,4.60
2023-03-10T04:05:54.152Z,5.00
2023-03-10T04:08:21.410Z,4.18
2023-03-10T04:10:55.287Z,4.82
2023-03-10T04:13:25.466Z,4.47
2023-03-10T04:16:00.567Z,4.28
2023-03-10T04:18:28.482Z,4.68
2023-03-10T04:20:56.371Z,4.07
2023-03-10T04:23:24.126Z,5.20
2023-03-10T04:25:51.414Z,5.45
2023-03-10T04:28:20.307Z,4.57
2023-03-10T04:30:47.875Z,5.65
2023-03-10T04:33:15.104Z,4.68
2023-03-10T04:35:44.683Z,4.97
2023-03-10T04:38:13.639Z,4.85
2023-03-10T04:40:40.798Z,4.78
2023-03-10T04:43:09.268Z,4.65
2023-03-10T04:45:38.052Z,5.00
2023-03-10T04:48:06.464Z,5.00
2023-03-10T04:50:34.586Z,4.32
2023-03-10T04:53:01.782Z,6.72
2023-03-10T04:55:29.183Z,5.30
2023-03-10T04:57:56.751Z,5.40
2023-03-10T05:00:24.392Z,6.70
2023-03-10T05:02:51.658Z,4.78
2023-03-10T05:05:18.932Z,4.60
2023-03-10T05:07:47.081Z,6.05
2023-03-10T05:10:14.443Z,4.82
2023-03-10T05:12:42.482Z,5.20
2023-03-10T05:15:11.431Z,8.75
2023-03-10T05:17:38.782Z,5.35
2023-03-10T05:20:10.544Z,7.55
2023-03-10T05:22:39.172Z,4.70
2023-03-10T05:25:08.280Z,5.20
2023-03-10T05:27:37.371Z,6.18
2023-03-10T05:30:08.271Z,7.40
2023-03-10T05:32:37.859Z,5.25
2023-03-10T05:35:05.768Z,6.75
2023-03-10T05:37:39.573Z,5.50
2023-03-10T05:42:42.488Z,5.37
2023-03-10T05:45:12.572Z,6.70
2023-03-10T05:47:40.213Z,7.63
2023-03-10T05:50:11.088Z,5.10
2023-03-10T05:52:44.308Z,4.85
2023-03-10T05:55:18.263Z,4.93
2023-03-10T05:57:46.284Z,6.05
2023-03-10T06:00:17.085Z,5.32
2023-03-10T06:02:44.425Z,5.07
2023-03-10T06:05:13.726Z,5.03
2023-03-10T06:07:42.051Z,6.43
2023-03-10T06:10:10.535Z,4.28
2023-03-10T06:12:38.210Z,4.10
2023-03-10T06:15:06.503Z,5.50
2023-03-10T06:17:33.776Z,5.53
2023-03-10T06:20:02.082Z,4.97
2023-03-10T06:22:31.268Z,5.10
2023-03-10T06:24:58.912Z,5.75
2023-03-10T06:29:53.744Z,5.45
2023-03-10T06:34:48.580Z,4.72
2023-03-10T06:37:15.886Z,5.35
2023-03-10T06:39:43.452Z,5.05
2023-03-10T06:42:10.666Z,6.28
2023-03-10T06:44:38.051Z,7.63
2023-03-10T06:49:33.925Z,5.32
2023-03-10T06:52:01.607Z,6.63
2023-03-10T06:54:28.847Z,5.28
2023-03-10T06:56:56.116Z,5.75
2023-03-10T06:59:23.846Z,4.55
2023-03-10T07:01:55.047Z,3.70
2023-03-10T07:04:23.598Z,4.30
2023-03-10T07:06:53.723Z,5.28
2023-03-10T07:09:23.798Z,4.88
2023-03-10T07:11:55.126Z,5.28
2023-03-10T07:14:27.217Z,4.78
2023-03-10T07:17:07.811Z,5.25
2023-03-10T07:19:40.696Z,4.35
2023-03-10T07:22:12.355Z,3.85
2023-03-10T07:24:46.140Z,6.07
2023-03-10T07:27:17.173Z,4.35
2023-03-10T07:29:50.699Z,5.70
2023-03-10T07:32:18.866Z,4.85
2023-03-10T07:34:53.989Z,3.85
2023-03-10T07:37:24.829Z,4.45
2023-03-10T07:39:56.690Z,4.93
2023-03-10T07:42:31.245Z,4.40
2023-03-10T07:44:59.733Z,5.43
2023-03-10T07:47:27.024Z,3.72
2023-03-10T07:49:55.195Z,3.58
2023-03-10T07:52:23.151Z,5.22
2023-03-10T07:54:55.265Z,4.18
2023-03-10T07:57:33.860Z,3.92
2023-03-10T08:00:01.189Z,4.10
2023-03-10T08:02:28.383Z,4.32
2023-03-10T08:04:55.650Z,4.28
2023-03-10T08:07:23.070Z,4.70
2023-03-10T08:09:54.676Z,5.00
2023-03-10T08:12:22.579Z,4.63
2023-03-10T08:14:51.269Z,4.28
2023-03-10T08:17:18.525Z,4.32
2023-03-10T08:19:45.966Z,3.28
2023-03-10T08:22:13.433Z,3.15
2023-03-10T08:24:40.597Z,3.67
2023-03-10T08:27:07.842Z,4.38
2023-03-10T08:29:35.342Z,5.93
2023-03-10T08:34:34.557Z,5.50
2023-03-10T08:37:02.158Z,5.50
2023-03-10T08:39:29.956Z,5.30
2023-03-10T08:41:57.171Z,6.05
2023-03-10T08:44:26.865Z,6.50
2023-03-10T08:46:55.195Z,6.10
2023-03-10T08:49:23.074Z,6.18
2023-03-10T08:51:50.446Z,4.43
2023-03-10T08:54:20.943Z,7.00
2023-03-10T08:56:49.031Z,6.53
2023-03-10T08:59:16.293Z,6.68
2023-03-10T09:01:43.521Z,5.05
2023-03-10T09:04:11.142Z,5.35
2023-03-10T09:06:39.195Z,5.22
2023-03-10T09:09:10.451Z,6.20
2023-03-10T09:11:40.204Z,4.93
2023-03-10T09:14:08.570Z,3.50
2023-03-10T09:16:35.925Z,6.05
2023-03-10T09:19:04.145Z,6.07
2023-03-10T09:21:33.756Z,7.82
2023-03-10T09:24:02.508Z,6.50
2023-03-10T09:26:30.496Z,7.35
2023-03-10T09:28:57.806Z,7.55
2023-03-10T09:31:36.231Z,7.57
2023-03-10T09:34:04.123Z,8.02
2023-03-10T09:36:32.965Z,5.28
2023-03-10T09:39:01.354Z,8.55
2023-03-10T09:42:01.480Z,7.00
2023-03-10T09:44:58.104Z,7.47
2023-03-10T09:47:46.558Z,7.63
2023-03-10T09:50:26.162Z,9.13
2023-03-10T09:53:30.700Z,9.20
2023-03-10T09:55:58.456Z,9.38
2023-03-10T09:58:39.874Z,8.32
2023-03-10T10:01:18.171Z,6.90
2023-03-10T10:04:10.890Z,10.07
2023-03-10T10:06:43.164Z,8.20
2023-03-10T10:09:35.412Z,8.45
2023-03-10T10:12:32.161Z,10.25
2023-03-10T10:15:14.281Z,7.05
2023-03-10T10:18:02.872Z,6.20
2023-03-10T10:20:59.176Z,4.32
2023-03-10T10:23:49.114Z,5.28
2023-03-10T10:26:22.518Z,5.55
2023-03-10T10:29:14.024Z,5.43
2023-03-10T10:31:41.187Z,4.05
2023-03-10T10:34:23.039Z,5.05
2023-03-10T10:36:57.470Z,3.92
2023-03-10T10:39:43.681Z,3.22
2023-03-10T10:42:27.094Z,4.00
2023-03-10T10:44:59.642Z,2.88
2023-03-10T10:47:31.542Z,3.33
2023-03-10T10:50:29.223Z,2.55
2023-03-10T10:53:20.727Z,2.35
2023-03-10T10:56:14.408Z,2.05
2023-03-10T10:58:45.986Z,1.73
2023-03-10T11:01:17.279Z,1.58
2023-03-10T11:03:49.090Z,1.17
2023-03-10T11:06:22.220Z,1.92
2023-03-10T11:08:53.154Z,2.50
2023-03-10T11:11:33.905Z,2.17
2023-03-10T11:14:40.487Z,2.17
2023-03-10T11:17:29.908Z,1.48
2023-03-10T11:20:25.162Z,1.95
2023-03-10T11:23:34.116Z,2.30
2023-03-10T11:26:17.700Z,1.70
2023-03-10T11:29:21.360Z,2.50
2023-03-10T11:32:38.812Z,1.98
2023-03-10T11:35:31.837Z,0.77
2023-03-10T11:38:39.426Z,1.23
2023-03-10T11:41:27.068Z,1.73
2023-03-10T11:44:14.354Z,1.50
2023-03-10T11:47:28.178Z,2.00
2023-03-10T11:50:17.149Z,1.83
2023-03-10T11:52:47.021Z,2.58
2023-03-10T11:55:22.158Z,1.58
2023-03-10T11:57:59.433Z,2.08
2023-03-10T12:00:38.428Z,2.67
2023-03-10T12:03:55.944Z,2.28
2023-03-10T12:06:39.125Z,2.97
2023-03-10T12:09:15.850Z,3.03
2023-03-10T12:11:43.463Z,2.10
2023-03-10T12:14:14.762Z,1.83
2023-03-10T12:16:43.828Z,2.58
2023-03-10T12:19:11.099Z,1.95
2023-03-10T12:24:06.540Z,1.48
2023-03-10T12:27:01.506Z,2.17
2023-03-10T12:29:39.776Z,2.22
2023-03-10T12:32:47.500Z,2.03
2023-03-10T12:35:48.196Z,1.85
2023-03-10T12:38:59.912Z,1.92
2023-03-10T12:41:27.068Z,2.05
2023-03-10T12:44:38.076Z,1.20
2023-03-10T12:47:30.847Z,1.98
2023-03-10T12:52:41.568Z,1.73
2023-03-10T12:55:26.216Z,1.13
2023-03-10T12:57:56.140Z,1.75
2023-03-10T13:00:42.528Z,2.05
2023-03-10T13:06:18.915Z,3.95
2023-03-10T13:09:10.165Z,2.35
2023-03-10T13:11:44.246Z,2.40
2023-03-10T13:14:17.151Z,2.80
2023-03-10T13:17:01.123Z,3.58
2023-03-10T13:19:35.268Z,3.25
2023-03-10T13:22:05.006Z,3.05
2023-03-10T13:24:37.472Z,3.33
2023-03-10T13:27:06.064Z,2.70
2023-03-10T13:29:34.227Z,2.42
2023-03-10T13:32:01.818Z,2.90
2023-03-10T13:34:32.776Z,3.13
2023-03-10T13:37:06.996Z,3.40
2023-03-10T13:39:34.389Z,1.90
2023-03-10T13:42:11.537Z,2.67
2023-03-10T13:44:42.440Z,2.22
2023-03-10T13:47:23.786Z,1.60
2023-03-10T13:50:00.137Z,1.80
2023-03-10T13:52:31.160Z,1.00
2023-03-10T13:55:16.399Z,2.75
2023-03-10T13:57:46.317Z,2.00
2023-03-10T14:00:22.193Z,2.15
2023-03-10T14:02:52.302Z,3.13
2023-03-10T14:05:41.111Z,2.35
2023-03-10T14:08:32.951Z,2.17
2023-03-10T14:11:32.906Z,2.42
2023-03-10T14:14:02.361Z,1.23
2023-03-10T14:16:54.555Z,1.23
2023-03-10T14:19:48.816Z,1.13
2023-03-10T14:22:35.446Z,2.05
2023-03-10T14:25:13.122Z,2.58
2023-03-10T14:27:44.721Z,1.02
2023-03-10T14:30:34.063Z,1.00
2023-03-10T14:33:02.275Z,1.20
2023-03-10T14:35:30.180Z,2.17
2023-03-10T14:37:57.589Z,2.00
2023-03-10T14:42:56.185Z,2.63
2023-03-10T14:45:31.955Z,3.35
2023-03-10T14:48:02.817Z,3.25
2023-03-10T14:50:31.110Z,2.00
2023-03-10T14:52:58.391Z,1.42
2023-03-10T14:55:25.703Z,2.17
2023-03-10T14:58:00.419Z,0.88
2023-03-10T15:00:28.173Z,1.00
2023-03-10T15:02:55.487Z,0.95
2023-03-10T15:05:45.178Z,1.65
2023-03-10T15:08:15.660Z,1.77
2023-03-10T15:10:48.750Z,1.30
2023-03-10T15:13:19.990Z,1.05
2023-03-10T15:15:48.573Z,1.20
2023-03-10T15:18:20.025Z,1.17
2023-03-10T15:20:47.854Z,0.68
2023-03-10T15:23:18.851Z,1.40
2023-03-10T15:25:46.874Z,0.77
2023-03-10T15:28:14.443Z,1.63
2023-03-10T15:30:42.331Z,1.33
2023-03-10T15:33:10.928Z,0.60
2023-03-10T15:35:39.218Z,0.60
2023-03-10T15:38:07.173Z,1.05
2023-03-10T15:40:36.136Z,0.75
2023-03-10T15:43:03.485Z,1.30
2023-03-10T15:47:59.898Z,1.00
2023-03-10T15:50:27.970Z,1.05
2023-03-10T15:52:58.007Z,0.80
2023-03-10T15:55:27.178Z,0.90
2023-03-10T15:57:56.209Z,0.85
2023-03-10T16:00:25.976Z,0.82
2023-03-10T16:02:54.926Z,1.00
2023-03-10T16:05:22.860Z,1.17
2023-03-10T16:07:50.847Z,0.73
2023-03-10T16:10:20.985Z,1.15
2023-03-10T16:12:48.355Z,1.23
2023-03-10T16:15:18.257Z,1.10
2023-03-10T16:17:45.959Z,1.20
2023-03-10T16:20:14.564Z,1.25
2023-03-10T16:22:43.251Z,1.17
2023-03-10T16:25:19.597Z,0.50
2023-03-10T16:27:48.611Z,0.80
2023-03-10T16:30:18.424Z,1.23
2023-03-10T16:32:50.416Z,1.10
2023-03-10T16:35:19.296Z,1.52
2023-03-10T16:37:46.541Z,1.35
2023-03-10T16:42:45.706Z,1.15
2023-03-10T16:45:13.664Z,0.65
2023-03-10T16:47:41.275Z,0.93
2023-03-10T16:50:12.813Z,1.13
2023-03-10T16:52:42.691Z,1.00
2023-03-10T16:55:17.419Z,0.65
2023-03-10T16:57:46.093Z,2.55
2023-03-10T17:00:14.516Z,1.20
2023-03-10T17:02:41.659Z,1.52
2023-03-10T17:05:10.280Z,0.57
2023-03-10T17:07:53.321Z,2.33
2023-03-10T17:10:23.864Z,0.95
2023-03-10T17:12:52.296Z,1.15
2023-03-10T17:15:20.594Z,1.45
2023-03-10T17:17:47.760Z,1.48
2023-03-10T17:20:15.638Z,0.93
2023-03-10T17:22:42.845Z,1.10
2023-03-10T17:25:13.668Z,0.93
2023-03-10T17:27:42.480Z,1.35
2023-03-10T17:30:12.042Z,1.35
2023-03-10T17:32:39.179Z,1.08
2023-03-10T17:37:33.821Z,1.17
2023-03-10T17:40:02.284Z,1.65
2023-03-10T17:42:30.773Z,1.27
2023-03-10T17:44:57.930Z,1.27
2023-03-10T17:47:25.168Z,1.55
2023-03-10T17:49:55.489Z,1.55
2023-03-10T17:52:22.636Z,0.80
2023-03-10T17:54:51.049Z,1.02
2023-03-10T17:57:18.196Z,1.58
2023-03-10T17:59:45.444Z,1.38
2023-03-10T18:02:13.311Z,1.23
2023-03-10T18:04:45.365Z,1.20
2023-03-10T18:07:13.697Z,1.08
2023-03-10T18:09:40.915Z,1.10
2023-03-10T18:12:09.621Z,2.85
2023-03-10T18:14:36.856Z,3.70
2023-03-10T18:17:04.116Z,2.85
2023-03-10T18:19:31.667Z,4.50
2023-03-10T18:21:59.964Z,4.57
2023-03-10T18:24:27.254Z,3.38
2023-03-10T18:26:56.201Z,3.57
2023-03-10T18:29:23.790Z,4.30
2023-03-10T18:31:51.061Z,3.25
2023-03-10T18:34:19.575Z,5.95
2023-03-10T18:36:46.978Z,5.35
2023-03-10T18:39:15.576Z,4.10
2023-03-10T18:41:42.782Z,3.85
2023-03-10T18:44:09.966Z,3.00
2023-03-10T18:46:37.392Z,3.05
2023-03-10T18:51:32.263Z,2.40
2023-03-10T18:53:59.532Z,3.42
2023-03-10T18:56:29.212Z,3.20
2023-03-10T18:58:58.171Z,3.35
2023-03-10T19:01:50.297Z,3.15
2023-03-10T19:04:24.813Z,2.47
2023-03-10T19:06:52.968Z,2.60
2023-03-10T19:09:22.664Z,2.60
2023-03-10T19:11:52.439Z,2.80
2023-03-10T19:14:22.570Z,2.33
2023-03-10T19:16:52.850Z,2.08
2023-03-10T19:19:20.734Z,3.53
2023-03-10T19:21:54.191Z,3.53
2023-03-10T19:24:22.968Z,4.32
2023-03-10T19:26:51.309Z,7.50
2023-03-10T19:29:23.176Z,4.80
2023-03-10T19:31:53.836Z,4.57
2023-03-10T19:34:24.215Z,4.97
2023-03-10T19:36:53.952Z,5.10
2023-03-10T19:39:24.229Z,3.92
2023-03-10T19:41:51.623Z,3.80
2023-03-10T19:44:18.773Z,4.50
2023-03-10T19:46:45.960Z,6.03
2023-03-10T19:49:13.209Z,6.30
2023-03-10T19:51:40.396Z,4.45
2023-03-10T19:54:07.776Z,6.40
2023-03-10T19:56:35.138Z,4.93
2023-03-10T19:59:02.834Z,5.13
2023-03-10T20:01:30.381Z,4.82
2023-03-10T20:06:28.666Z,2.13
2023-03-10T20:08:57.469Z,3.05
2023-03-10T20:11:24.759Z,2.83
2023-03-10T20:13:54.226Z,1.98
2023-03-10T20:16:24.313Z,2.38
2023-03-10T20:18:51.692Z,3.47
2023-03-10T20:21:18.890Z,3.70
2023-03-10T20:23:47.928Z,4.03
2023-03-10T20:26:16.490Z,3.35
2023-03-10T20:28:45.092Z,6.03
2023-03-10T20:31:22.865Z,4.40
2023-03-10T20:33:50.750Z,4.55
2023-03-10T20:36:18.556Z,4.07
2023-03-10T20:38:47.443Z,5.22
2023-03-10T20:41:17.892Z,5.35
2023-03-10T20:43:45.563Z,3.78
2023-03-10T20:46:13.697Z,3.90
2023-03-10T20:48:41.113Z,5.05
2023-03-10T20:53:37.436Z,3.90
2023-03-10T20:56:10.233Z,5.20
2023-03-10T20:58:38.243Z,5.10
2023-03-10T21:01:05.610Z,4.55
2023-03-10T21:03:33.105Z,5.15
2023-03-10T21:08:27.318Z,4.20
2023-03-10T21:10:54.411Z,5.65
2023-03-10T21:13:21.705Z,4.32
2023-03-10T21:15:48.925Z,3.95
2023-03-10T21:18:16.064Z,3.80
2023-03-10T21:20:43.209Z,3.05
2023-03-10T21:23:10.395Z,2.50
2023-03-10T21:25:37.665Z,2.70
2023-03-10T21:28:04.788Z,3.85
2023-03-10T21:30:33.763Z,3.25
2023-03-10T21:33:01.045Z,12.45
2023-03-10T21:35:32.030Z,1.77
2023-03-10T21:37:59.516Z,2.72
2023-03-10T21:42:56.253Z,3.40
2023-03-10T21:45:24.739Z,2.20
2023-03-10T21:47:52.256Z,2.97
2023-03-10T21:52:48.315Z,3.28
2023-03-10T21:55:23.206Z,3.97
2023-03-10T21:57:51.630Z,3.13
2023-03-10T22:00:23.213Z,4.00
2023-03-10T22:02:53.233Z,3.75
2023-03-10T22:05:21.271Z,3.80
2023-03-10T22:07:49.227Z,3.90
2023-03-10T22:10:18.548Z,3.30
2023-03-10T22:12:46.063Z,3.35
2023-03-10T22:17:46.971Z,2.25
2023-03-10T22:20:18.741Z,5.13
2023-03-10T22:22:46.281Z,2.65
2023-03-10T22:27:43.893Z,4.70
2023-03-10T22:30:14.141Z,2.67
2023-03-10T22:32:42.144Z,5.22
2023-03-10T22:35:10.223Z,21.08
2023-03-10T22:37:39.060Z,3.70
2023-03-10T22:40:10.342Z,1.88
2023-03-10T22:42:39.361Z,3.05
2023-03-10T22:45:17.940Z,3.20
2023-03-10T22:47:46.125Z,4.32
2023-03-10T22:50:26.286Z,3.25
2023-03-10T22:55:25.863Z,3.78
2023-03-10T22:57:53.804Z,4.40
2023-03-10T23:00:22.800Z,3.03
2023-03-10T23:02:52.430Z,1.33
2023-03-10T23:05:21.682Z,2.67
2023-03-10T23:07:49.841Z,1.90
2023-03-10T23:10:25.151Z,1.40
2023-03-10T23:12:54.081Z,3.67
2023-03-10T23:15:29.670Z,1.40
2023-03-10T23:17:57.636Z,1.30
2023-03-10T23:20:29.151Z,1.10
2023-03-10T23:22:59.355Z,1.42
2023-03-10T23:25:42.914Z,1.38
2023-03-10T23:28:11.651Z,2.47
2023-03-10T23:30:42.055Z,2.42
2023-03-10T23:33:14.170Z,2.78
2023-03-10T23:35:41.690Z,2.50
2023-03-10T23:38:10.135Z,2.60
2023-03-10T23:40:46.306Z,4.30
2023-03-10T23:43:14.449Z,3.50
2023-03-10T23:45:41.979Z,1.80
2023-03-10T23:48:16.237Z,4.40
2023-03-10T23:50:45.995Z,1.70
2023-03-10T23:53:16.352Z,1.50
2023-03-10T23:55:46.946Z,2.03
2023-03-10T23:58:16.849Z,2.95
